createdAt,value
2022-11-05T00:01:28.331Z,10.53
2022-11-05T00:04:49.058Z,10.51
2022-11-05T00:08:11.825Z,10.54
2022-11-05T00:11:18.109Z,10.49
2022-11-05T00:14:39.687Z,10.56
2022-11-05T00:17:42.246Z,10.48
2022-11-05T00:20:44.971Z,10.10
2022-11-05T00:24:05.843Z,10.05
2022-11-05T00:27:10.694Z,9.85
2022-11-05T00:30:18.063Z,9.75
2022-11-05T00:33:23.153Z,9.68
2022-11-05T00:36:25.488Z,9.81
2022-11-05T00:39:27.872Z,9.81
2022-11-05T00:42:49.103Z,9.87
2022-11-05T00:45:51.484Z,9.77
2022-11-05T00:49:12.252Z,9.73
2022-11-05T00:52:33.063Z,9.75
2022-11-05T00:55:35.398Z,9.93
2022-11-05T00:58:37.848Z,9.82
2022-11-05T01:01:40.714Z,9.98
2022-11-05T01:04:43.226Z,10.03
2022-11-05T01:07:45.673Z,10.15
2022-11-05T01:10:51.454Z,10.21
2022-11-05T01:13:53.754Z,10.21
2022-11-05T01:16:56.170Z,10.20
2022-11-05T01:20:01.387Z,10.22
2022-11-05T01:23:05.480Z,10.26
2022-11-05T01:26:11.325Z,10.27
2022-11-05T01:29:13.786Z,10.29
2022-11-05T01:32:16.779Z,10.19
2022-11-05T01:35:19.154Z,10.18
2022-11-05T01:38:21.978Z,10.20
2022-11-05T01:41:24.324Z,10.11
2022-11-05T01:44:54.334Z,10.29
2022-11-05T01:48:02.569Z,10.30
2022-11-05T01:51:08.469Z,10.30
2022-11-05T01:54:14.306Z,10.35
2022-11-05T01:57:16.847Z,10.44
2022-11-05T02:00:20.854Z,10.39
2022-11-05T02:03:23.989Z,10.49
2022-11-05T02:06:27.565Z,10.42
2022-11-05T02:09:34.907Z,10.45
2022-11-05T02:12:39.890Z,10.43
2022-11-05T02:16:27.170Z,10.57
2022-11-05T02:20:00.400Z,10.58
2022-11-05T02:23:25.912Z,10.76
2022-11-05T02:27:02.310Z,10.66
2022-11-05T02:30:19.889Z,10.57
2022-11-05T02:33:35.808Z,10.51
2022-11-05T02:36:41.397Z,10.53
2022-11-05T02:40:05.582Z,10.54
2022-11-05T02:43:43.627Z,10.59
2022-11-05T02:46:52.968Z,10.51
2022-11-05T02:50:15.082Z,10.38
2022-11-05T02:53:35.305Z,10.08
2022-11-05T02:56:40.550Z,10.26
2022-11-05T02:59:43.085Z,10.31
2022-11-05T03:02:45.728Z,10.38
2022-11-05T03:06:19.089Z,10.44
2022-11-05T03:09:45.619Z,10.44
2022-11-05T03:12:48.088Z,10.44
2022-11-05T03:15:56.958Z,10.35
2022-11-05T03:19:08.537Z,10.33
2022-11-05T03:22:24.134Z,10.34
2022-11-05T03:25:28.319Z,10.35
2022-11-05T03:28:33.134Z,10.37
2022-11-05T03:31:37.307Z,10.37
2022-11-05T03:34:47.221Z,10.39
2022-11-05T03:37:51.256Z,10.27
2022-11-05T03:40:55.450Z,10.22
2022-11-05T03:43:58.851Z,10.21
2022-11-05T03:47:05.493Z,10.11
2022-11-05T03:50:14.180Z,10.14
2022-11-05T03:53:26.274Z,10.17
2022-11-05T03:56:30.779Z,10.16
2022-11-05T03:59:39.951Z,10.25
2022-11-05T04:02:42.590Z,10.31
2022-11-05T04:06:05.059Z,10.22
2022-11-05T04:09:26.031Z,10.39
2022-11-05T04:12:46.748Z,10.50
2022-11-05T04:16:07.494Z,10.50
2022-11-05T04:19:09.854Z,10.69
2022-11-05T04:22:30.982Z,10.55
2022-11-05T04:25:33.804Z,10.45
2022-11-05T04:28:54.543Z,10.33
2022-11-05T04:31:59.803Z,10.27
2022-11-05T04:35:02.122Z,10.16
2022-11-05T04:38:06.021Z,10.11
2022-11-05T04:41:17.692Z,9.96
2022-11-05T04:44:20.038Z,9.78
2022-11-05T04:47:22.372Z,9.75
2022-11-05T04:50:26.663Z,9.75
2022-11-05T04:53:29.257Z,9.74
2022-11-05T04:56:31.631Z,9.70
2022-11-05T04:59:33.974Z,9.75
2022-11-05T05:02:36.527Z,9.89
2022-11-05T05:05:38.883Z,9.95
2022-11-05T05:08:41.524Z,10.10
2022-11-05T05:11:43.929Z,10.15
2022-11-05T05:14:48.013Z,10.04
2022-11-05T05:17:53.553Z,9.98
2022-11-05T05:21:18.404Z,10.03
2022-11-05T05:24:21.408Z,9.88
2022-11-05T05:27:24.430Z,9.79
2022-11-05T05:30:29.364Z,9.67
2022-11-05T05:33:31.661Z,9.62
2022-11-05T05:36:34.055Z,9.90
2022-11-05T05:39:36.400Z,9.83
2022-11-05T05:42:42.929Z,9.94
2022-11-05T05:45:45.827Z,9.89
2022-11-05T05:48:50.028Z,9.83
2022-11-05T05:51:52.422Z,9.94
2022-11-05T05:54:54.830Z,10.03
2022-11-05T05:57:57.139Z,10.07
2022-11-05T06:01:17.418Z,10.05
2022-11-05T06:04:21.469Z,10.14
2022-11-05T06:07:23.843Z,10.04
2022-11-05T06:10:26.305Z,10.24
2022-11-05T06:13:29.265Z,10.18
2022-11-05T06:16:35.881Z,10.19
2022-11-05T06:19:38.385Z,10.21
2022-11-05T06:22:40.870Z,10.32
2022-11-05T06:25:43.243Z,10.32
2022-11-05T06:28:46.502Z,10.35
2022-11-05T06:31:48.979Z,10.33
2022-11-05T06:34:51.375Z,10.30
2022-11-05T06:37:53.758Z,10.22
2022-11-05T06:40:58.709Z,10.13
2022-11-05T06:44:01.177Z,10.01
2022-11-05T06:47:03.596Z,10.18
2022-11-05T06:50:06.485Z,10.24
2022-11-05T06:53:09.302Z,10.21
2022-11-05T06:56:12.133Z,10.22
2022-11-05T06:59:14.804Z,10.21
2022-11-05T07:02:18.294Z,10.23
2022-11-05T07:05:20.684Z,10.17
2022-11-05T07:08:24.053Z,10.32
2022-11-05T07:11:26.434Z,10.41
2022-11-05T07:14:30.125Z,10.39
2022-11-05T07:17:32.564Z,10.35
2022-11-05T07:20:35.449Z,10.31
2022-11-05T07:23:37.913Z,10.37
2022-11-05T07:26:40.256Z,10.63
2022-11-05T07:29:42.846Z,10.60
2022-11-05T07:32:45.351Z,10.73
2022-11-05T07:35:47.791Z,10.62
2022-11-05T07:38:50.170Z,10.56
2022-11-05T07:41:57.705Z,10.60
2022-11-05T07:45:07.877Z,10.62
2022-11-05T07:48:10.238Z,10.64
2022-11-05T07:51:12.550Z,10.72
2022-11-05T07:54:14.965Z,10.74
2022-11-05T07:57:17.359Z,10.85
2022-11-05T08:00:21.894Z,10.80
2022-11-05T08:03:24.603Z,10.89
2022-11-05T08:06:27.069Z,10.96
2022-11-05T08:09:29.520Z,10.90
2022-11-05T08:12:32.438Z,11.00
2022-11-05T08:15:35.469Z,10.83
2022-11-05T08:18:37.903Z,10.55
2022-11-05T08:21:40.348Z,10.80
2022-11-05T08:24:42.774Z,10.70
2022-11-05T08:27:45.806Z,10.75
2022-11-05T08:30:50.004Z,10.63
2022-11-05T08:33:57.119Z,10.72
2022-11-05T08:37:02.329Z,10.64
2022-11-05T08:40:05.319Z,10.82
2022-11-05T08:43:08.418Z,10.72
2022-11-05T08:46:11.083Z,10.92
2022-11-05T08:49:13.442Z,11.00
2022-11-05T08:52:15.950Z,10.89
2022-11-05T08:55:19.027Z,11.18
2022-11-05T08:58:21.413Z,11.13
2022-11-05T09:01:26.797Z,11.15
2022-11-05T09:04:30.500Z,11.20
2022-11-05T09:07:32.961Z,11.34
2022-11-05T09:10:35.868Z,11.44
2022-11-05T09:13:38.400Z,11.39
2022-11-05T09:16:42.522Z,11.23
2022-11-05T09:19:45.178Z,11.31
2022-11-05T09:22:47.648Z,11.26
2022-11-05T09:25:49.990Z,11.15
2022-11-05T09:28:52.353Z,11.24
2022-11-05T09:31:54.742Z,11.20
2022-11-05T09:34:57.098Z,11.31
2022-11-05T09:38:01.160Z,11.20
2022-11-05T09:41:24.216Z,11.18
2022-11-05T09:44:47.655Z,11.09
2022-11-05T09:47:54.725Z,11.11
2022-11-05T09:50:58.289Z,11.11
2022-11-05T09:54:00.775Z,11.17
2022-11-05T09:57:04.013Z,11.08
2022-11-05T10:00:08.603Z,11.20
2022-11-05T10:03:14.541Z,11.28
2022-11-05T10:06:22.122Z,11.18
2022-11-05T10:09:30.192Z,11.15
2022-11-05T10:12:40.371Z,11.08
2022-11-05T10:16:18.119Z,11.04
2022-11-05T10:19:24.553Z,10.93
2022-11-05T10:22:27.080Z,11.07
2022-11-05T10:25:32.023Z,11.12
2022-11-05T10:28:34.860Z,11.00
2022-11-05T10:31:37.822Z,10.99
2022-11-05T10:34:40.308Z,10.89
2022-11-05T10:37:42.670Z,10.96
2022-11-05T10:40:59.897Z,10.88
2022-11-05T10:44:23.473Z,11.04
2022-11-05T10:47:39.091Z,10.98
2022-11-05T10:50:44.176Z,11.05
2022-11-05T10:53:55.941Z,11.12
2022-11-05T10:57:01.170Z,11.09
2022-11-05T11:00:15.941Z,11.13
2022-11-05T11:03:40.088Z,11.10
2022-11-05T11:06:51.358Z,11.05
2022-11-05T11:09:54.012Z,10.99
2022-11-05T11:12:57.122Z,10.94
2022-11-05T11:16:19.909Z,11.05
2022-11-05T11:19:33.562Z,11.15
2022-11-05T11:22:35.885Z,11.22
2022-11-05T11:25:52.077Z,11.11
2022-11-05T11:29:23.515Z,11.36
2022-11-05T11:32:32.477Z,11.28
2022-11-05T11:35:37.862Z,11.32
2022-11-05T11:38:40.797Z,11.26
2022-11-05T11:41:44.234Z,11.18
2022-11-05T11:44:47.748Z,11.24
2022-11-05T11:47:50.966Z,11.15
2022-11-05T11:50:53.855Z,11.22
2022-11-05T11:53:58.362Z,11.29
2022-11-05T11:57:00.848Z,11.29
2022-11-05T12:00:11.256Z,11.24
2022-11-05T12:03:31.739Z,11.29
2022-11-05T12:07:05.685Z,11.42
2022-11-05T12:10:29.866Z,11.51
2022-11-05T12:13:55.390Z,11.46
2022-11-05T12:17:23.935Z,11.42
2022-11-05T12:20:34.154Z,11.27
2022-11-05T12:23:42.393Z,11.42
2022-11-05T12:27:11.050Z,11.24
2022-11-05T12:30:19.201Z,11.13
2022-11-05T12:33:33.806Z,11.07
2022-11-05T12:37:20.321Z,11.08
2022-11-05T12:40:50.567Z,11.07
2022-11-05T12:43:56.035Z,11.18
2022-11-05T12:47:14.663Z,11.16
2022-11-05T12:50:22.934Z,11.24
2022-11-05T12:53:34.366Z,11.29
2022-11-05T12:56:43.654Z,11.29
2022-11-05T13:00:06.741Z,11.19
2022-11-05T13:03:23.320Z,11.33
2022-11-05T13:06:30.996Z,11.26
2022-11-05T13:10:05.709Z,11.37
2022-11-05T13:13:38.219Z,11.30
2022-11-05T13:16:44.840Z,11.28
2022-11-05T13:19:52.608Z,11.30
2022-11-05T13:23:14.117Z,11.19
2022-11-05T13:26:27.550Z,11.21
2022-11-05T13:29:37.748Z,11.24
2022-11-05T13:32:45.049Z,11.21
2022-11-05T13:36:20.625Z,11.00
2022-11-05T13:39:25.087Z,11.24
2022-11-05T13:42:58.473Z,11.15
2022-11-05T13:46:25.207Z,11.32
2022-11-05T13:49:33.302Z,11.35
2022-11-05T13:52:50.872Z,11.31
2022-11-05T13:56:16.349Z,11.23
2022-11-05T13:59:48.906Z,11.18
2022-11-05T14:02:55.973Z,11.27
2022-11-05T14:06:10.030Z,11.23
2022-11-05T14:09:18.883Z,11.31
2022-11-05T14:12:36.793Z,11.27
2022-11-05T14:15:39.197Z,11.18
2022-11-05T14:18:44.311Z,11.35
2022-11-05T14:21:54.845Z,11.42
2022-11-05T14:24:57.943Z,11.35
2022-11-05T14:28:00.529Z,11.28
2022-11-05T14:31:05.398Z,11.37
2022-11-05T14:34:10.845Z,11.39
2022-11-05T14:37:13.341Z,11.38
2022-11-05T14:40:21.920Z,11.43
2022-11-05T14:43:26.022Z,11.38
2022-11-05T14:46:42.194Z,11.35
2022-11-05T14:50:09.200Z,11.42
2022-11-05T14:53:25.415Z,11.37
2022-11-05T14:56:27.910Z,11.31
2022-11-05T14:59:32.758Z,11.36
2022-11-05T15:02:38.532Z,11.30
2022-11-05T15:05:53.247Z,11.31
2022-11-05T15:08:56.400Z,11.32
2022-11-05T15:12:46.638Z,11.35
2022-11-05T15:15:50.758Z,11.37
2022-11-05T15:18:54.150Z,11.28
2022-11-05T15:21:58.699Z,11.33
2022-11-05T15:25:01.878Z,11.32
2022-11-05T15:28:27.265Z,11.23
2022-11-05T15:31:32.552Z,11.24
2022-11-05T15:34:35.712Z,11.21
2022-11-05T15:37:52.358Z,11.23
2022-11-05T15:41:03.001Z,11.16
2022-11-05T15:44:05.542Z,11.20
2022-11-05T15:47:16.891Z,11.22
2022-11-05T15:50:19.406Z,11.16
2022-11-05T15:53:51.552Z,11.03
2022-11-05T15:56:57.949Z,11.03
2022-11-05T16:00:04.844Z,11.14
2022-11-05T16:03:18.527Z,11.00
2022-11-05T16:06:23.586Z,11.22
2022-11-05T16:09:28.245Z,11.21
2022-11-05T16:12:35.475Z,11.19
2022-11-05T16:15:38.201Z,11.14
2022-11-05T16:18:41.723Z,11.13
2022-11-05T16:21:54.797Z,11.19
2022-11-05T16:24:57.443Z,11.19
2022-11-05T16:28:00.953Z,11.11
2022-11-05T16:31:05.774Z,11.10
2022-11-05T16:34:26.201Z,11.05
2022-11-05T16:37:31.713Z,11.00
2022-11-05T16:40:34.273Z,11.08
2022-11-05T16:43:36.941Z,10.98
2022-11-05T16:46:40.345Z,11.05
2022-11-05T16:49:42.983Z,10.98
2022-11-05T16:52:46.481Z,11.02
2022-11-05T16:55:49.757Z,11.03
2022-11-05T16:58:52.599Z,11.03
2022-11-05T17:01:56.085Z,10.99
2022-11-05T17:04:58.886Z,11.01
2022-11-05T17:08:03.523Z,10.93
2022-11-05T17:11:06.842Z,10.99
2022-11-05T17:14:13.103Z,10.90
2022-11-05T17:17:16.276Z,11.07
2022-11-05T17:20:39.890Z,10.98
2022-11-05T17:23:43.714Z,11.07
2022-11-05T17:26:46.521Z,10.96
2022-11-05T17:29:49.342Z,10.99
2022-11-05T17:32:52.424Z,10.94
2022-11-05T17:35:56.249Z,10.96
2022-11-05T17:38:58.925Z,10.82
2022-11-05T17:42:01.549Z,10.93
2022-11-05T17:45:04.810Z,11.03
2022-11-05T17:48:09.352Z,10.99
2022-11-05T17:51:18.523Z,10.89
2022-11-05T17:54:21.196Z,10.89
2022-11-05T17:57:23.915Z,10.94
2022-11-05T18:00:28.536Z,10.86
2022-11-05T18:03:31.663Z,10.71
2022-11-05T18:06:34.448Z,10.86
2022-11-05T18:09:37.784Z,10.82
2022-11-05T18:12:41.019Z,10.78
2022-11-05T18:15:44.691Z,10.67
2022-11-05T18:18:48.798Z,10.71
2022-11-05T18:21:51.625Z,10.67
2022-11-05T18:24:54.849Z,10.69
2022-11-05T18:27:57.679Z,10.63
2022-11-05T18:31:00.558Z,10.51
2022-11-05T18:34:03.655Z,10.47
2022-11-05T18:37:06.426Z,10.43
2022-11-05T18:40:10.057Z,10.51
2022-11-05T18:43:13.773Z,10.55
2022-11-05T18:46:43.148Z,10.52
2022-11-05T18:49:40.236Z,10.42
2022-11-05T18:52:43.303Z,10.45
2022-11-05T18:55:46.058Z,10.35
2022-11-05T18:58:49.730Z,10.24
2022-11-05T19:01:53.309Z,10.32
2022-11-05T19:05:26.650Z,10.19
2022-11-05T19:08:19.089Z,10.24
2022-11-05T19:11:23.652Z,10.25
2022-11-05T19:14:26.558Z,10.16
2022-11-05T19:17:29.401Z,10.14
2022-11-05T19:20:37.635Z,10.02
2022-11-05T19:23:41.140Z,10.11
2022-11-05T19:26:44.257Z,10.03
2022-11-05T19:29:47.684Z,10.16
2022-11-05T19:32:50.474Z,10.17
2022-11-05T19:35:53.287Z,10.26
2022-11-05T19:38:58.612Z,10.32
2022-11-05T19:42:03.770Z,10.30
2022-11-05T19:45:30.231Z,10.23
2022-11-05T19:48:31.516Z,10.21
2022-11-05T19:51:34.415Z,10.12
2022-11-05T19:54:37.533Z,10.15
2022-11-05T19:57:40.243Z,10.05
2022-11-05T20:00:43.392Z,10.06
2022-11-05T20:03:46.721Z,10.15
2022-11-05T20:06:49.659Z,10.14
2022-11-05T20:09:52.483Z,10.05
2022-11-05T20:12:55.209Z,10.12
2022-11-05T20:15:58.517Z,10.03
2022-11-05T20:19:01.312Z,9.82
2022-11-05T20:22:04.100Z,10.01
2022-11-05T20:25:07.134Z,9.93
2022-11-05T20:28:10.308Z,9.92
2022-11-05T20:31:15.638Z,9.98
2022-11-05T20:34:19.239Z,9.90
2022-11-05T20:37:21.940Z,9.94
2022-11-05T20:40:24.918Z,9.77
2022-11-05T20:43:30.652Z,9.75
2022-11-05T20:46:33.430Z,9.91
2022-11-05T20:49:36.262Z,9.94
2022-11-05T20:52:39.085Z,9.74
2022-11-05T20:55:46.650Z,9.95
2022-11-05T20:58:49.529Z,9.93
2022-11-05T21:01:52.416Z,9.91
2022-11-05T21:04:55.162Z,10.00
2022-11-05T21:07:57.982Z,9.95
2022-11-05T21:11:01.197Z,9.98
2022-11-05T21:14:03.961Z,9.93
2022-11-05T21:17:07.966Z,9.91
2022-11-05T21:20:10.720Z,9.93
2022-11-05T21:23:14.254Z,9.77
2022-11-05T21:26:18.012Z,9.97
2022-11-05T21:29:20.792Z,9.77
2022-11-05T21:32:23.311Z,9.93
2022-11-05T21:35:26.105Z,10.08
2022-11-05T21:38:29.130Z,9.99
2022-11-05T21:41:31.928Z,10.01
2022-11-05T21:44:34.747Z,9.98
2022-11-05T21:47:37.488Z,10.05
2022-11-05T21:50:59.567Z,10.08
2022-11-05T21:54:21.084Z,9.95
2022-11-05T21:57:42.384Z,10.00
2022-11-05T22:00:45.138Z,10.07
2022-11-05T22:03:49.897Z,10.01
2022-11-05T22:06:52.447Z,10.05
2022-11-05T22:09:55.406Z,10.05
2022-11-05T22:12:57.928Z,9.96
2022-11-05T22:16:00.707Z,9.82
2022-11-05T22:19:03.441Z,9.94
2022-11-05T22:22:06.862Z,9.93
2022-11-05T22:25:09.496Z,9.96
2022-11-05T22:28:12.439Z,10.02
2022-11-05T22:31:16.254Z,9.94
2022-11-05T22:34:19.049Z,9.88
2022-11-05T22:37:22.758Z,9.85
2022-11-05T22:40:25.401Z,9.73
2022-11-05T22:43:27.925Z,9.77
2022-11-05T22:46:30.657Z,9.75
2022-11-05T22:49:33.740Z,9.84
2022-11-05T22:52:36.211Z,9.69
2022-11-05T22:55:41.381Z,9.89
2022-11-05T22:58:43.864Z,9.82
2022-11-05T23:01:46.875Z,9.88
2022-11-05T23:04:51.503Z,10.00
2022-11-05T23:08:12.441Z,9.95
2022-11-05T23:11:41.196Z,9.94
2022-11-05T23:14:43.528Z,9.98
2022-11-05T23:18:04.237Z,9.88
2022-11-05T23:21:25.894Z,9.77
2022-11-05T23:24:28.408Z,9.86
2022-11-05T23:27:32.899Z,9.79
2022-11-05T23:30:56.879Z,9.77
2022-11-05T23:33:59.226Z,9.75
2022-11-05T23:37:20.139Z,9.83
2022-11-05T23:40:28.304Z,9.61
2022-11-05T23:43:49.388Z,9.77
2022-11-05T23:47:10.492Z,9.68
2022-11-05T23:50:13.016Z,9.78
2022-11-05T23:53:15.846Z,9.76
2022-11-05T23:56:18.223Z,9.66
2022-11-05T23:59:20.615Z,9.64
